TimeCDT,TemperatureF,Dew PointF,Humidity,Sea Level PressureIn,VisibilityMPH,Wind Direction,Wind SpeedMPH,Gust SpeedMPH,PrecipitationIn,Events,Conditions,WindDirDegrees,DateUTC
12:11 AM,42.8,32.0,66,30.20,10.0,WNW,15.0,23.0,N/A,,Overcast,300,2012-10-05 05:11:00
12:31 AM,42.8,30.2,61,30.20,10.0,WNW,16.1,20.7,N/A,,Overcast,300,2012-10-05 05:31:00
12:52 AM,42.8,28.4,57,30.20,10.0,WNW,19.6,29.9,N/A,,Overcast,300,2012-10-05 05:52:00
1:11 AM,42.8,26.6,53,30.19,10.0,WNW,17.3,21.9,N/A,,Overcast,300,2012-10-05 06:11:00
1:31 AM,42.8,26.6,53,30.19,10.0,WNW,13.8,26.5,N/A,,Overcast,300,2012-10-05 06:31:00
1:51 AM,41.0,26.6,57,30.20,10.0,WNW,17.3,26.5,N/A,,Mostly Cloudy,300,2012-10-05 06:51:00
2:11 AM,39.2,26.6,61,30.20,10.0,NW,10.4,-,N/A,,Mostly Cloudy,310,2012-10-05 07:11:00
2:31 AM,39.2,26.6,61,30.19,10.0,WNW,11.5,-,N/A,,Mostly Cloudy,290,2012-10-05 07:31:00
2:51 AM,39.2,26.6,61,30.18,10.0,WNW,15.0,18.4,N/A,,Clear,290,2012-10-05 07:51:00
3:11 AM,35.6,26.6,70,30.19,10.0,WNW,16.1,-,N/A,,Clear,290,2012-10-05 08:11:00
3:32 AM,35.6,26.6,70,30.19,10.0,West,11.5,-,N/A,,Clear,280,2012-10-05 08:32:00
3:51 AM,33.8,26.6,75,30.19,10.0,West,12.7,-,N/A,,Clear,280,2012-10-05 08:51:00
4:12 AM,33.8,26.6,75,30.19,10.0,WNW,12.7,-,N/A,,Clear,290,2012-10-05 09:12:00
4:31 AM,33.8,26.6,75,30.19,10.0,West,13.8,-,N/A,,Clear,280,2012-10-05 09:31:00
4:51 AM,33.8,26.6,75,30.19,10.0,WNW,15.0,-,N/A,,Clear,290,2012-10-05 09:51:00
5:11 AM,33.8,26.6,75,30.19,10.0,West,13.8,-,N/A,,Clear,280,2012-10-05 10:11:00
5:31 AM,33.8,28.4,81,30.18,10.0,West,15.0,20.7,N/A,,Clear,280,2012-10-05 10:31:00
5:51 AM,33.8,28.4,81,30.18,10.0,West,15.0,-,N/A,,Clear,280,2012-10-05 10:51:00
6:11 AM,32.0,26.6,80,30.18,10.0,West,15.0,18.4,N/A,,Clear,280,2012-10-05 11:11:00
6:30 AM,32.0,26.6,80,30.18,10.0,West,13.8,-,N/A,,Clear,280,2012-10-05 11:30:00
6:52 AM,32.0,26.6,80,30.18,10.0,West,11.5,-,N/A,,Clear,280,2012-10-05 11:52:00
7:11 AM,32.0,26.6,80,30.18,10.0,West,13.8,-,N/A,,Clear,280,2012-10-05 12:11:00
7:30 AM,32.0,26.6,80,30.18,10.0,WNW,13.8,-,N/A,,Clear,290,2012-10-05 12:30:00
7:51 AM,32.0,26.6,80,30.18,10.0,West,15.0,-,N/A,,Clear,280,2012-10-05 12:51:00
8:11 AM,33.8,28.4,81,30.20,10.0,West,15.0,20.7,N/A,,Clear,280,2012-10-05 13:11:00
8:31 AM,33.8,26.6,75,30.20,10.0,West,18.4,-,N/A,,Clear,280,2012-10-05 13:31:00
8:52 AM,33.8,26.6,75,30.20,10.0,West,17.3,23.0,N/A,,Clear,280,2012-10-05 13:52:00
9:10 AM,35.6,26.6,70,30.20,10.0,WNW,17.3,25.3,N/A,,Clear,290,2012-10-05 14:10:00
9:31 AM,35.6,26.6,70,30.20,10.0,WNW,19.6,29.9,N/A,,Clear,300,2012-10-05 14:31:00
9:51 AM,35.6,26.6,70,30.20,10.0,NW,18.4,27.6,N/A,,Clear,310,2012-10-05 14:51:00
10:11 AM,37.4,26.6,65,30.20,10.0,NW,19.6,29.9,N/A,,Clear,310,2012-10-05 15:11:00
10:32 AM,39.2,26.6,61,30.19,10.0,WNW,20.7,25.3,N/A,,Clear,290,2012-10-05 15:32:00
10:51 AM,39.2,26.6,61,30.18,10.0,NW,21.9,29.9,N/A,,Clear,310,2012-10-05 15:51:00
11:11 AM,39.2,26.6,61,30.18,10.0,WNW,18.4,28.8,N/A,,Clear,300,2012-10-05 16:11:00
11:31 AM,41.0,24.8,53,30.18,10.0,NW,23.0,28.8,N/A,,Clear,310,2012-10-05 16:31:00
12:11 PM,42.8,24.8,49,30.17,10.0,WNW,21.9,28.8,N/A,,Scattered Clouds,300,2012-10-05 17:11:00
12:31 PM,42.8,24.8,49,30.18,10.0,NW,23.0,27.6,N/A,,Scattered Clouds,320,2012-10-05 17:31:00
12:51 PM,42.8,24.8,49,30.18,10.0,NW,21.9,29.9,N/A,,Scattered Clouds,310,2012-10-05 17:51:00
1:31 PM,44.6,24.8,46,30.17,10.0,NW,20.7,34.5,N/A,,Clear,310,2012-10-05 18:31:00
1:51 PM,44.6,24.8,46,30.17,10.0,WNW,20.7,31.1,N/A,,Scattered Clouds,300,2012-10-05 18:51:00
2:10 PM,44.6,24.8,46,30.17,10.0,NW,23.0,31.1,N/A,,Scattered Clouds,310,2012-10-05 19:10:00
2:31 PM,46.4,26.6,46,30.17,10.0,NW,18.4,29.9,N/A,,Mostly Cloudy,320,2012-10-05 19:31:00
2:51 PM,46.4,26.6,46,30.16,10.0,WNW,20.7,28.8,N/A,,Mostly Cloudy,300,2012-10-05 19:51:00
3:11 PM,46.4,26.6,46,30.17,10.0,WNW,20.7,28.8,N/A,,Mostly Cloudy,300,2012-10-05 20:11:00
3:31 PM,46.4,26.6,46,30.17,10.0,NW,24.2,29.9,N/A,,Overcast,310,2012-10-05 20:31:00
3:51 PM,42.8,23.0,46,30.17,10.0,NW,20.7,34.5,N/A,,Overcast,320,2012-10-05 20:51:00
4:12 PM,42.8,23.0,46,30.17,10.0,WNW,19.6,32.2,N/A,,Overcast,300,2012-10-05 21:12:00
4:31 PM,42.8,23.0,46,30.17,10.0,WNW,21.9,28.8,N/A,,Overcast,300,2012-10-05 21:31:00
4:51 PM,42.8,24.8,49,30.17,10.0,NW,23.0,33.4,N/A,,Overcast,310,2012-10-05 21:51:00
5:11 PM,42.8,24.8,49,30.17,10.0,NW,20.7,29.9,N/A,,Overcast,310,2012-10-05 22:11:00
5:32 PM,42.8,24.8,49,30.17,10.0,NW,21.9,28.8,N/A,,Overcast,310,2012-10-05 22:32:00
5:51 PM,42.8,26.6,53,30.18,10.0,NW,19.6,25.3,N/A,,Overcast,320,2012-10-05 22:51:00
6:10 PM,41.0,24.8,53,30.18,10.0,NW,20.7,29.9,N/A,,Overcast,310,2012-10-05 23:10:00
6:31 PM,41.0,24.8,53,30.19,10.0,NW,18.4,27.6,N/A,,Overcast,320,2012-10-05 23:31:00
6:51 PM,41.0,24.8,53,30.19,10.0,NW,21.9,29.9,N/A,,Overcast,320,2012-10-05 23:51:00
7:11 PM,39.2,23.0,52,30.19,10.0,NW,19.6,27.6,N/A,,Overcast,320,2012-10-06 00:11:00
7:31 PM,39.2,24.8,56,30.20,10.0,NW,20.7,31.1,N/A,,Overcast,310,2012-10-06 00:31:00
7:51 PM,39.2,24.8,56,30.20,10.0,WNW,17.3,23.0,N/A,,Overcast,300,2012-10-06 00:51:00
8:11 PM,39.2,24.8,56,30.19,10.0,WNW,18.4,26.5,N/A,,Overcast,300,2012-10-06 01:11:00
8:31 PM,39.2,24.8,56,30.20,10.0,WNW,16.1,24.2,N/A,,Overcast,300,2012-10-06 01:31:00
8:51 PM,39.2,24.8,56,30.20,10.0,NW,17.3,25.3,N/A,,Mostly Cloudy,310,2012-10-06 01:51:00
9:11 PM,39.2,26.6,61,30.20,10.0,NW,23.0,29.9,N/A,,Overcast,320,2012-10-06 02:11:00
9:31 PM,39.2,26.6,61,30.21,10.0,NW,17.3,23.0,N/A,,Overcast,310,2012-10-06 02:31:00
9:51 PM,39.2,26.6,61,30.21,10.0,NW,20.7,27.6,N/A,,Overcast,310,2012-10-06 02:51:00
10:31 PM,39.2,28.4,65,30.21,10.0,NW,17.3,21.9,N/A,,Overcast,320,2012-10-06 03:31:00
10:51 PM,35.6,26.6,70,30.22,10.0,NW,16.1,25.3,N/A,,Mostly Cloudy,320,2012-10-06 03:51:00
11:31 PM,35.6,28.4,75,30.21,10.0,NW,20.7,26.5,N/A,,Mostly Cloudy,310,2012-10-06 04:31:00
11:51 PM,33.8,26.6,75,30.21,10.0,NW,17.3,20.7,N/A,,Scattered Clouds,310,2012-10-06 04:51:00